Terminal Aerodrome Forecast
Issued by NWS

Home | Current Version | Previous Version | Text Only | Print | Product List | Glossary On
Versions: 1 2 3 4 5 6 7 8 9 10 11 12 13 14 15 16 17 18 19 20 21
000
FTUS43 KGRR 300520
TAFJXN
TAF
KJXN 300520Z 3006/0106 16006KT P6SM OVC025
     FM301000 14003KT 4SM BR BKN015
     FM301200 VRB03KT 1 1/2SM BR OVC008
     FM301400 24004KT 4SM BR OVC015
     FM301600 28006KT P6SM VCTS OVC035CB
     FM010000 29007KT P6SM VCSH BKN035=

USA.gov is the U.S. government's official web portal to all federal, state and local government web resources and services.